Time;durP1;ratioP1;P1;durP2;ratioP2;P2;SDS_P1;SDS_P2;PMS_P1;PMS_P2;Temp;Humidity;BMP_temperature;BMP_pressure;BME280_temperature;BME280_humidity;BME280_pressure;Samples;Min_cycle;Max_cycle;Signal;HPM_P1;HPM_P2
2023/01/19 00:01:36;;;;;;;3.78;2.75;;;13.00;48.90;;;;;;5086650;27;45180;-75
2023/01/19 00:04:03;;;;;;;5.68;3.75;;;13.00;48.80;;;;;;5086631;27;45404;-75
2023/01/19 00:06:30;;;;;;;4.20;2.88;;;13.00;48.90;;;;;;5086086;27;45431;-76
2023/01/19 00:08:57;;;;;;;5.03;3.20;;;13.00;48.90;;;;;;5086009;27;45401;-75
2023/01/19 00:11:23;;;;;;;5.22;3.10;;;13.00;48.80;;;;;;5086433;27;45200;-75
2023/01/19 00:13:52;;;;;;;6.10;3.50;;;13.00;48.80;;;;;;5087651;27;45210;-76
2023/01/19 00:16:21;;;;;;;3.65;2.92;;;12.90;48.70;;;;;;5090269;27;45358;-75
2023/01/19 00:18:49;;;;;;;5.43;3.47;;;12.90;48.80;;;;;;5089820;27;46715;-75
2023/01/19 00:21:16;;;;;;;5.85;3.40;;;12.90;48.80;;;;;;5089900;27;45289;-75
2023/01/19 00:23:46;;;;;;;4.50;3.28;;;12.90;48.90;;;;;;5089734;27;45223;-75
2023/01/19 00:26:13;;;;;;;5.32;2.78;;;12.80;48.80;;;;;;5090077;27;45339;-75
2023/01/19 00:28:39;;;;;;;4.65;3.13;;;12.80;48.90;;;;;;5089530;27;46747;-76
2023/01/19 00:31:08;;;;;;;4.90;3.00;;;12.80;48.90;;;;;;5089990;27;45225;-75
2023/01/19 00:33:34;;;;;;;4.78;3.30;;;12.80;48.90;;;;;;5089897;27;45287;-75
2023/01/19 00:36:01;;;;;;;4.60;2.80;;;12.80;48.80;;;;;;5089969;27;45225;-75
2023/01/19 00:38:28;;;;;;;4.33;3.27;;;12.80;48.80;;;;;;5089522;27;46400;-75
2023/01/19 00:40:55;;;;;;;3.95;2.55;;;12.80;48.80;;;;;;5089897;27;45251;-75
2023/01/19 00:43:22;;;;;;;4.32;2.72;;;12.70;48.80;;;;;;5089559;27;45267;-75
2023/01/19 00:45:49;;;;;;;5.82;3.08;;;12.70;48.90;;;;;;5089813;27;45343;-75
2023/01/19 00:48:17;;;;;;;4.88;3.10;;;12.70;48.80;;;;;;5089321;27;46398;-75
2023/01/19 00:50:43;;;;;;;4.78;2.97;;;12.70;48.80;;;;;;5089394;27;45276;-75
2023/01/19 00:53:10;;;;;;;4.10;2.88;;;12.70;48.70;;;;;;5088924;27;45249;-75
2023/01/19 00:55:37;;;;;;;4.75;3.03;;;12.70;48.80;;;;;;5089316;27;45419;-75
2023/01/19 00:58:05;;;;;;;4.47;2.95;;;12.70;48.80;;;;;;5089280;27;45375;-75
2023/01/19 01:00:32;;;;;;;4.20;3.03;;;12.60;48.80;;;;;;5089288;27;45287;-75
2023/01/19 01:02:58;;;;;;;6.55;2.95;;;12.70;48.80;;;;;;5089417;27;45295;-75
2023/01/19 01:05:27;;;;;;;2.95;2.47;;;12.60;48.80;;;;;;5089613;27;45247;-75
2023/01/19 01:07:53;;;;;;;5.30;2.95;;;12.60;48.70;;;;;;5088924;27;46721;-75
2023/01/19 01:10:22;;;;;;;4.63;2.80;;;12.60;48.70;;;;;;5088990;27;45315;-75
2023/01/19 01:12:49;;;;;;;4.13;2.60;;;12.60;48.70;;;;;;5089144;27;45173;-76
2023/01/19 01:15:16;;;;;;;3.67;2.38;;;12.60;48.80;;;;;;5089299;27;45391;-76
2023/01/19 01:17:46;;;;;;;2.95;2.60;;;12.50;48.80;;;;;;5088865;27;45225;-76
2023/01/19 01:20:16;;;;;;;3.22;2.22;;;12.50;48.80;;;;;;5089101;27;45340;-75
2023/01/19 01:22:45;;;;;;;3.90;2.60;;;12.50;48.80;;;;;;5089127;27;45242;-76
2023/01/19 01:25:13;;;;;;;4.55;2.78;;;12.50;48.80;;;;;;5088669;27;45221;-76
2023/01/19 01:27:39;;;;;;;3.65;2.72;;;12.50;48.80;;;;;;5088666;27;46372;-75
2023/01/19 01:30:08;;;;;;;3.37;2.27;;;12.50;48.80;;;;;;5088919;27;45275;-76
2023/01/19 01:32:34;;;;;;;3.43;2.50;;;12.40;48.70;;;;;;5089022;27;45317;-75
2023/01/19 01:35:01;;;;;;;4.27;2.60;;;12.40;48.70;;;;;;5088976;27;45461;-76
2023/01/19 01:37:28;;;;;;;3.10;2.30;;;12.40;48.70;;;;;;5088098;27;46362;-75
2023/01/19 01:39:56;;;;;;;4.18;2.63;;;12.40;48.70;;;;;;5088052;27;45178;-75
2023/01/19 01:42:26;;;;;;;2.75;2.30;;;12.40;48.70;;;;;;5088773;27;45180;-75
2023/01/19 01:44:54;;;;;;;4.65;2.80;;;12.40;48.70;;;;;;5088900;27;45478;-75
2023/01/19 01:47:25;;;;;;;3.13;2.10;;;12.40;48.70;;;;;;5088626;27;45184;-75
2023/01/19 01:49:53;;;;;;;3.40;2.13;;;12.40;48.70;;;;;;5088549;27;45244;-76
2023/01/19 01:52:20;;;;;;;3.70;2.73;;;12.30;48.70;;;;;;5088557;27;45259;-75
2023/01/19 01:54:47;;;;;;;4.33;2.27;;;12.30;48.60;;;;;;5089109;27;45440;-75
2023/01/19 01:57:15;;;;;;;3.80;2.27;;;12.30;48.70;;;;;;5088111;27;45473;-75
2023/01/19 01:59:45;;;;;;;3.90;2.70;;;12.30;48.60;;;;;;5088393;27;45443;-75
2023/01/19 02:05:02;;;;;;;4.10;2.50;;;12.30;48.60;;;;;;5086012;28;45256;-75
2023/01/19 02:13:20;;;;;;;4.13;2.40;;;12.20;48.50;;;;;;5085681;28;45213;-75
2023/01/19 02:15:48;;;;;;;2.70;2.03;;;12.20;48.50;;;;;;5088462;27;45197;-75
2023/01/19 02:18:15;;;;;;;3.60;1.90;;;12.20;48.50;;;;;;5087753;27;45295;-75
2023/01/19 02:20:43;;;;;;;2.43;2.10;;;12.20;48.50;;;;;;5087938;27;45329;-76
2023/01/19 02:23:14;;;;;;;2.85;2.20;;;12.20;48.50;;;;;;5087849;27;45201;-75
2023/01/19 02:25:42;;;;;;;5.47;2.40;;;12.10;48.50;;;;;;5088356;27;45335;-75
2023/01/19 02:28:09;;;;;;;3.90;2.10;;;12.10;48.40;;;;;;5087765;27;45340;-75
2023/01/19 02:30:36;;;;;;;2.80;2.00;;;12.10;48.50;;;;;;5087797;27;45258;-75
2023/01/19 02:33:03;;;;;;;1.93;1.70;;;12.10;48.50;;;;;;5087917;27;45150;-75
2023/01/19 02:35:31;;;;;;;2.90;1.80;;;12.10;48.50;;;;;;5087976;27;45283;-75
2023/01/19 02:37:58;;;;;;;4.50;2.07;;;12.10;48.40;;;;;;5086563;27;48297;-75
2023/01/19 02:40:25;;;;;;;2.80;2.13;;;12.10;48.50;;;;;;5087732;27;45150;-75
2023/01/19 02:42:53;;;;;;;2.83;1.80;;;12.00;48.40;;;;;;5088036;27;45213;-75
2023/01/19 02:45:21;;;;;;;4.17;2.20;;;12.00;48.50;;;;;;5087927;27;45380;-75
2023/01/19 02:47:49;;;;;;;2.77;1.83;;;12.00;48.40;;;;;;5087493;27;45378;-75
2023/01/19 02:50:42;;;;;;;2.65;1.83;;;12.10;48.30;;;;;;5086995;27;45263;-75
2023/01/19 02:53:42;;;;;;;2.27;2.07;;;12.20;48.20;;;;;;5087816;27;45310;-75
2023/01/19 02:56:43;;;;;;;2.03;1.83;;;12.20;48.10;;;;;;5085851;27;45526;-75
2023/01/19 02:59:18;;;;;;;2.17;1.90;;;12.30;47.90;;;;;;5085308;27;46410;-75
2023/01/19 03:01:53;;;;;;;2.80;2.10;;;12.30;47.80;;;;;;5087482;27;45177;-75
2023/01/19 03:04:24;;;;;;;2.67;1.67;;;12.30;47.70;;;;;;5087349;27;45185;-76
2023/01/19 03:06:53;;;;;;;4.27;1.83;;;12.30;47.70;;;;;;5087575;27;45340;-75
2023/01/19 03:09:23;;;;;;;2.60;2.20;;;12.30;47.70;;;;;;5087261;27;47370;-75
2023/01/19 03:11:54;;;;;;;2.50;1.80;;;12.30;47.70;;;;;;5087274;27;45257;-75
2023/01/19 03:14:23;;;;;;;1.73;1.63;;;12.30;48.20;;;;;;5087282;27;45211;-75
2023/01/19 03:16:53;;;;;;;3.80;2.00;;;12.20;47.70;;;;;;5087255;27;45282;-75
2023/01/19 03:19:21;;;;;;;3.40;2.20;;;12.20;47.70;;;;;;5086977;27;45173;-75
2023/01/19 03:21:55;;;;;;;2.97;1.70;;;12.20;47.70;;;;;;5087125;27;45306;-75
2023/01/19 03:24:22;;;;;;;1.97;1.57;;;12.20;47.70;;;;;;5087061;27;45207;-75
2023/01/19 03:26:51;;;;;;;2.00;1.80;;;12.10;47.70;;;;;;5087411;27;45203;-74
2023/01/19 03:29:18;;;;;;;2.37;1.87;;;12.10;47.90;;;;;;5086173;27;47464;-75
2023/01/19 03:31:47;;;;;;;2.40;1.80;;;12.10;48.00;;;;;;5086982;27;45205;-75
2023/01/19 03:34:14;;;;;;;2.00;1.80;;;12.10;48.00;;;;;;5087149;27;45220;-75
2023/01/19 03:36:43;;;;;;;2.80;1.77;;;12.00;48.00;;;;;;5087021;27;45433;-75
2023/01/19 03:39:10;;;;;;;2.33;1.83;;;12.00;48.10;;;;;;5084199;27;46153;-75
2023/01/19 03:41:37;;;;;;;2.37;1.67;;;12.00;47.90;;;;;;5086873;27;45206;-75
2023/01/19 03:44:05;;;;;;;1.83;1.60;;;12.00;48.10;;;;;;5087066;27;45215;-75
2023/01/19 03:46:31;;;;;;;2.57;1.83;;;11.90;48.00;;;;;;5087055;27;45396;-75
2023/01/19 03:49:00;;;;;;;1.60;1.50;;;12.00;48.00;;;;;;5089304;27;46388;-76
2023/01/19 03:51:26;;;;;;;2.13;1.90;;;11.90;47.90;;;;;;5090352;27;45200;-76
2023/01/19 03:53:53;;;;;;;3.45;1.98;;;11.90;47.90;;;;;;5090475;27;45331;-75
2023/01/19 03:56:21;;;;;;;2.42;1.60;;;11.90;48.10;;;;;;5090609;27;45352;-75
2023/01/19 03:58:48;;;;;;;1.60;1.30;;;11.90;48.00;;;;;;5090072;27;45374;-75
2023/01/19 04:01:15;;;;;;;2.30;1.63;;;11.90;48.00;;;;;;5090237;27;45224;-75
2023/01/19 04:03:42;;;;;;;2.17;1.60;;;11.90;48.00;;;;;;5090477;27;45185;-75
2023/01/19 04:06:10;;;;;;;2.57;1.90;;;11.90;48.00;;;;;;5090422;27;45403;-75
2023/01/19 04:08:37;;;;;;;2.23;1.63;;;11.90;47.90;;;;;;5090065;27;45251;-76
2023/01/19 04:11:04;;;;;;;1.70;1.40;;;11.80;47.90;;;;;;5090113;27;45355;-74
2023/01/19 04:13:30;;;;;;;2.13;1.70;;;11.80;47.90;;;;;;5089457;27;45230;-76
2023/01/19 04:15:59;;;;;;;2.57;1.60;;;11.80;47.90;;;;;;5090525;27;45360;-75
2023/01/19 04:18:26;;;;;;;1.73;1.50;;;11.80;47.90;;;;;;5089751;27;45475;-75
2023/01/19 04:20:53;;;;;;;2.20;1.63;;;11.80;47.80;;;;;;5090093;27;45323;-75
2023/01/19 04:23:21;;;;;;;1.33;1.20;;;11.80;48.50;;;;;;5089736;27;45219;-75
2023/01/19 04:25:48;;;;;;;2.57;1.70;;;11.80;47.90;;;;;;5090279;27;45192;-75
2023/01/19 04:28:15;;;;;;;1.67;1.57;;;11.80;47.90;;;;;;5089910;27;46388;-75
2023/01/19 04:30:42;;;;;;;1.43;1.33;;;11.80;47.90;;;;;;5089675;27;45295;-75
2023/01/19 04:33:09;;;;;;;2.00;1.43;;;11.80;47.80;;;;;;5089855;27;45294;-76
2023/01/19 04:35:35;;;;;;;2.53;1.47;;;11.80;47.80;;;;;;5090039;27;45172;-75
2023/01/19 04:38:02;;;;;;;2.63;1.37;;;11.80;47.70;;;;;;5089286;27;46985;-75
2023/01/19 04:40:31;;;;;;;2.07;1.30;;;11.90;47.50;;;;;;5089733;27;45148;-75
2023/01/19 04:42:57;;;;;;;1.50;1.40;;;11.90;47.40;;;;;;5089962;27;45321;-75
2023/01/19 04:45:24;;;;;;;1.30;1.20;;;12.00;47.40;;;;;;5089905;27;45290;-76
2023/01/19 04:47:51;;;;;;;2.10;1.30;;;12.00;47.30;;;;;;5089329;27;47345;-75
2023/01/19 04:50:18;;;;;;;1.40;1.30;;;12.00;47.20;;;;;;5089638;27;45217;-75
2023/01/19 04:52:46;;;;;;;2.90;1.37;;;12.00;47.00;;;;;;5089517;27;45206;-75
2023/01/19 04:55:12;;;;;;;2.80;1.50;;;12.00;46.90;;;;;;5088939;27;45407;-75
2023/01/19 04:57:41;;;;;;;2.53;1.50;;;12.00;46.90;;;;;;5088992;27;45308;-75
2023/01/19 05:00:09;;;;;;;1.50;1.40;;;12.00;47.00;;;;;;5088437;27;45370;-75
2023/01/19 05:02:36;;;;;;;1.43;1.33;;;12.00;47.00;;;;;;5089374;27;45519;-76
2023/01/19 05:05:03;;;;;;;1.50;1.40;;;12.00;47.00;;;;;;5089498;27;45301;-75
2023/01/19 05:07:30;;;;;;;1.30;1.17;;;11.90;47.00;;;;;;5088970;27;45288;-75
2023/01/19 05:09:56;;;;;;;1.67;1.37;;;11.90;47.00;;;;;;5089275;27;45278;-76
2023/01/19 05:12:23;;;;;;;2.43;1.67;;;11.90;47.00;;;;;;5089451;27;45244;-75
2023/01/19 05:14:51;;;;;;;2.40;1.40;;;11.80;47.00;;;;;;5089586;27;45296;-75
2023/01/19 05:17:18;;;;;;;2.00;1.40;;;11.80;47.00;;;;;;5088835;27;45264;-75
2023/01/19 05:19:46;;;;;;;1.30;1.20;;;11.70;47.20;;;;;;5089204;27;45316;-75
2023/01/19 05:22:13;;;;;;;1.67;1.57;;;11.70;47.80;;;;;;5088832;27;45297;-75
2023/01/19 05:24:40;;;;;;;1.83;1.70;;;11.60;47.10;;;;;;5088993;27;45270;-75
2023/01/19 05:27:07;;;;;;;1.37;1.27;;;11.60;47.30;;;;;;5088801;27;47405;-75
2023/01/19 05:29:34;;;;;;;2.37;1.50;;;11.60;47.40;;;;;;5088814;27;45293;-75
2023/01/19 05:32:02;;;;;;;1.43;1.30;;;11.60;47.40;;;;;;5088923;27;45387;-75
2023/01/19 05:34:29;;;;;;;2.50;1.23;;;11.60;47.50;;;;;;5089083;27;45256;-75
2023/01/19 05:36:56;;;;;;;1.40;1.30;;;11.60;47.40;;;;;;5088082;27;46949;-74
2023/01/19 05:39:22;;;;;;;2.07;1.40;;;11.50;47.40;;;;;;5087979;27;45255;-74
2023/01/19 05:41:49;;;;;;;2.10;1.60;;;11.50;47.40;;;;;;5088791;27;45317;-75
2023/01/19 05:44:16;;;;;;;1.93;1.50;;;11.50;47.40;;;;;;5088909;27;45365;-75
2023/01/19 05:46:43;;;;;;;1.40;1.30;;;11.50;47.40;;;;;;5088530;27;46439;-75
2023/01/19 05:49:11;;;;;;;2.43;1.20;;;11.50;47.40;;;;;;5088443;27;45269;-75
2023/01/19 05:51:39;;;;;;;1.53;1.30;;;11.60;47.40;;;;;;5088704;27;45252;-75
2023/01/19 05:54:06;;;;;;;2.90;1.20;;;11.60;47.30;;;;;;5088556;27;45249;-75
2023/01/19 05:56:33;;;;;;;1.73;1.30;;;11.60;47.20;;;;;;5088286;27;45454;-75
2023/01/19 05:58:59;;;;;;;2.20;1.10;;;11.70;47.70;;;;;;5088618;27;45303;-75
2023/01/19 06:01:26;;;;;;;1.53;1.30;;;11.70;46.90;;;;;;5088514;27;45202;-75
2023/01/19 06:03:53;;;;;;;1.00;0.87;;;11.70;46.90;;;;;;5088630;27;45395;-75
2023/01/19 06:06:22;;;;;;;1.73;1.23;;;11.80;46.80;;;;;;5088376;27;45546;-75
2023/01/19 06:08:49;;;;;;;1.37;1.20;;;11.80;46.60;;;;;;5088168;27;45306;-75
2023/01/19 06:11:16;;;;;;;2.07;1.40;;;11.80;46.50;;;;;;5088089;27;45122;-75
2023/01/19 06:13:42;;;;;;;1.27;1.03;;;11.90;46.50;;;;;;5088559;27;45406;-75
2023/01/19 06:16:10;;;;;;;2.03;1.33;;;11.90;46.40;;;;;;5088010;27;46656;-75
2023/01/19 06:18:37;;;;;;;1.60;1.33;;;11.90;46.20;;;;;;5087923;27;45288;-75
2023/01/19 06:21:06;;;;;;;2.13;1.17;;;11.90;46.10;;;;;;5087434;28;45244;-75
2023/01/19 06:23:34;;;;;;;1.20;1.10;;;11.90;46.10;;;;;;5087883;27;45305;-75
2023/01/19 06:26:01;;;;;;;1.63;1.10;;;11.90;46.10;;;;;;5088185;27;46494;-75
2023/01/19 06:28:28;;;;;;;1.40;1.30;;;11.90;46.20;;;;;;5087959;27;45312;-75
2023/01/19 06:30:55;;;;;;;1.23;1.23;;;11.90;46.20;;;;;;5088048;27;45181;-75
2023/01/19 06:33:22;;;;;;;1.93;1.40;;;11.80;46.20;;;;;;5088248;27;45176;-76
2023/01/19 06:35:50;;;;;;;1.90;1.60;;;11.80;46.30;;;;;;5087826;27;45806;-76
2023/01/19 06:38:17;;;;;;;2.20;1.40;;;11.80;46.90;;;;;;5087618;27;45304;-75
2023/01/19 06:40:45;;;;;;;2.83;1.47;;;11.80;46.40;;;;;;5087706;28;45162;-75
2023/01/19 06:43:12;;;;;;;1.40;1.30;;;11.70;46.30;;;;;;5088310;27;45408;-75
2023/01/19 06:45:39;;;;;;;1.77;1.60;;;11.70;46.50;;;;;;5087564;27;46627;-76
2023/01/19 06:48:06;;;;;;;2.50;1.37;;;11.70;46.50;;;;;;5087508;27;45306;-75
2023/01/19 06:50:33;;;;;;;1.60;1.30;;;11.60;46.60;;;;;;5087651;27;45193;-75
2023/01/19 06:52:59;;;;;;;2.90;1.70;;;11.60;47.30;;;;;;5087734;27;45430;-75
2023/01/19 06:55:26;;;;;;;1.63;1.30;;;11.50;46.70;;;;;;5087361;27;46557;-75
2023/01/19 06:57:57;;;;;;;3.37;1.50;;;11.50;46.80;;;;;;5087218;27;45350;-75
2023/01/19 07:00:24;;;;;;;1.77;1.37;;;11.40;46.80;;;;;;5087871;27;45134;-75
2023/01/19 07:02:51;;;;;;;1.50;1.40;;;11.40;46.90;;;;;;5087538;27;45408;-74
2023/01/19 07:05:18;;;;;;;2.67;1.80;;;11.40;46.90;;;;;;5086527;27;45363;-75
2023/01/19 07:07:45;;;;;;;2.93;1.63;;;11.40;47.00;;;;;;5087041;27;45378;-75
2023/01/19 07:10:14;;;;;;;2.10;1.30;;;11.40;47.00;;;;;;5087438;27;45260;-75
2023/01/19 07:12:41;;;;;;;1.93;1.40;;;11.50;46.90;;;;;;5087679;27;45549;-75
2023/01/19 07:15:10;;;;;;;2.07;1.70;;;11.60;46.80;;;;;;5087085;27;45464;-75
2023/01/19 07:17:37;;;;;;;2.00;1.70;;;11.70;46.60;;;;;;5087068;27;45277;-75
2023/01/19 07:20:05;;;;;;;1.97;1.70;;;11.80;46.30;;;;;;5087259;27;45193;-75
2023/01/19 07:22:32;;;;;;;3.13;1.67;;;11.80;46.00;;;;;;5086751;27;45391;-75
2023/01/19 07:24:58;;;;;;;1.97;1.50;;;11.90;45.90;;;;;;5086626;28;46691;-76
2023/01/19 07:27:26;;;;;;;2.27;1.63;;;12.00;45.70;;;;;;5086864;27;45312;-76
2023/01/19 07:29:54;;;;;;;1.63;1.40;;;12.00;45.60;;;;;;5087144;27;45340;-75
2023/01/19 07:32:23;;;;;;;2.27;1.50;;;12.00;45.50;;;;;;5087717;27;45184;-75
2023/01/19 07:34:49;;;;;;;1.73;1.47;;;12.00;45.50;;;;;;5086866;27;45291;-75
2023/01/19 07:37:16;;;;;;;1.60;1.50;;;12.00;45.40;;;;;;5086602;27;45445;-75
2023/01/19 07:39:43;;;;;;;2.13;1.63;;;12.10;45.50;;;;;;5086817;27;45191;-75
2023/01/19 07:42:10;;;;;;;1.70;1.60;;;12.00;45.50;;;;;;5087110;27;45453;-75
2023/01/19 07:44:37;;;;;;;1.67;1.57;;;12.00;45.60;;;;;;5085650;27;45293;-74
2023/01/19 07:47:05;;;;;;;2.50;1.33;;;12.00;45.70;;;;;;5098372;27;45693;-74
2023/01/19 07:49:34;;;;;;;2.13;1.40;;;11.90;45.60;;;;;;5088219;27;45362;-75
2023/01/19 07:52:01;;;;;;;1.40;1.30;;;11.90;45.70;;;;;;5099824;27;45407;-75
2023/01/19 07:54:27;;;;;;;1.97;1.40;;;11.90;45.70;;;;;;5091830;27;45457;-75
2023/01/19 07:56:54;;;;;;;2.20;1.77;;;11.90;45.80;;;;;;5081790;28;45552;-75
2023/01/19 07:59:21;;;;;;;1.80;1.60;;;11.90;45.90;;;;;;5100103;27;45309;-75
2023/01/19 08:01:48;;;;;;;3.87;1.80;;;11.90;46.00;;;;;;5086492;27;45315;-75
2023/01/19 08:04:15;;;;;;;2.17;1.83;;;11.90;46.00;;;;;;5085938;27;46444;-75
2023/01/19 08:06:43;;;;;;;2.87;1.90;;;11.90;46.10;;;;;;5099629;27;45478;-75
2023/01/19 08:09:10;;;;;;;2.03;1.80;;;11.80;46.00;;;;;;5100256;27;45421;-75
2023/01/19 08:11:37;;;;;;;1.63;1.53;;;11.80;46.10;;;;;;5082712;27;45285;-75
2023/01/19 08:14:04;;;;;;;5.13;1.90;;;11.80;46.10;;;;;;5090589;27;46412;-74
2023/01/19 08:16:31;;;;;;;3.57;1.60;;;11.80;46.10;;;;;;5085516;27;45188;-75
2023/01/19 08:18:58;;;;;;;4.27;1.87;;;11.80;46.30;;;;;;5086033;27;45438;-75
2023/01/19 08:21:25;;;;;;;2.03;1.57;;;11.70;46.20;;;;;;5086214;27;45431;-75
2023/01/19 08:23:54;;;;;;;2.23;1.83;;;11.70;46.40;;;;;;5081975;27;45497;-76
2023/01/19 08:26:22;;;;;;;3.00;1.93;;;11.70;47.10;;;;;;5083901;27;45245;-75
2023/01/19 08:28:49;;;;;;;4.57;1.90;;;11.70;46.50;;;;;;5079797;28;45607;-75
2023/01/19 08:31:16;;;;;;;2.40;1.50;;;11.60;46.50;;;;;;5081248;28;45283;-75
2023/01/19 08:33:43;;;;;;;2.27;1.83;;;11.60;46.70;;;;;;5085903;27;45335;-74
2023/01/19 08:36:10;;;;;;;4.47;2.00;;;11.60;46.70;;;;;;5084165;27;45409;-75
2023/01/19 08:38:39;;;;;;;3.07;1.60;;;11.60;46.80;;;;;;5079813;28;45437;-75
2023/01/19 08:41:07;;;;;;;3.87;2.13;;;11.60;46.80;;;;;;5089306;27;45365;-75
2023/01/19 08:43:34;;;;;;;2.33;2.03;;;11.60;46.80;;;;;;5089234;27;45264;-75
2023/01/19 08:46:02;;;;;;;3.17;2.17;;;11.60;46.80;;;;;;5089154;27;45365;-75
2023/01/19 08:48:29;;;;;;;3.47;2.00;;;11.60;46.80;;;;;;5089288;27;45435;-76
2023/01/19 08:50:56;;;;;;;3.97;2.03;;;11.60;46.70;;;;;;5089431;27;45423;-76
2023/01/19 08:53:23;;;;;;;4.40;2.07;;;11.70;46.70;;;;;;5088673;27;45323;-75
2023/01/19 08:55:50;;;;;;;1.57;1.47;;;11.70;46.60;;;;;;5089056;27;45130;-75
2023/01/19 08:58:18;;;;;;;3.53;2.50;;;11.70;46.60;;;;;;5089276;27;45408;-75
2023/01/19 09:00:45;;;;;;;3.07;2.37;;;11.70;46.60;;;;;;5089199;27;45348;-76
2023/01/19 09:03:12;;;;;;;3.13;2.13;;;11.70;46.50;;;;;;5088827;27;47338;-75
2023/01/19 09:05:39;;;;;;;5.40;2.20;;;11.80;46.50;;;;;;5081016;27;45334;-76
2023/01/19 09:08:08;;;;;;;3.17;2.13;;;11.80;46.50;;;;;;5088988;27;45264;-75
2023/01/19 09:10:36;;;;;;;3.33;1.93;;;11.80;46.50;;;;;;5089217;27;45606;-75
2023/01/19 09:13:04;;;;;;;4.13;2.17;;;11.80;46.50;;;;;;5078437;27;46932;-73
2023/01/19 09:15:34;;;;;;;4.03;2.10;;;11.80;46.40;;;;;;5085830;28;45313;-75
2023/01/19 09:18:01;;;;;;;2.47;1.97;;;11.80;46.50;;;;;;5088847;27;45395;-75
2023/01/19 09:20:29;;;;;;;5.90;2.13;;;11.80;46.50;;;;;;5086557;27;45577;-75
2023/01/19 09:22:57;;;;;;;3.37;2.13;;;11.80;46.40;;;;;;5087235;27;45865;-75
2023/01/19 09:25:24;;;;;;;2.50;2.20;;;11.90;46.40;;;;;;5094641;27;45567;-75
2023/01/19 09:27:51;;;;;;;7.43;2.43;;;11.90;46.40;;;;;;5102808;27;45526;-76
2023/01/19 09:30:18;;;;;;;4.63;2.43;;;11.90;46.50;;;;;;5088752;27;45326;-76
2023/01/19 09:32:46;;;;;;;2.57;2.20;;;11.90;46.40;;;;;;5089809;27;46397;-75
2023/01/19 09:35:13;;;;;;;4.40;2.20;;;11.90;46.50;;;;;;5088459;27;45249;-75
2023/01/19 09:37:40;;;;;;;5.43;2.13;;;11.90;46.50;;;;;;5088493;27;45474;-75
2023/01/19 09:40:10;;;;;;;4.03;2.20;;;11.90;46.50;;;;;;5088723;27;45304;-75
2023/01/19 09:42:38;;;;;;;7.00;2.63;;;11.90;46.60;;;;;;5088628;27;47355;-75
2023/01/19 09:45:06;;;;;;;4.07;2.47;;;11.90;46.60;;;;;;5088410;27;45312;-76
2023/01/19 09:47:32;;;;;;;3.93;2.27;;;11.90;46.70;;;;;;5088569;27;45293;-75
2023/01/19 09:50:03;;;;;;;4.27;2.40;;;11.80;46.70;;;;;;5088633;27;45308;-75
2023/01/19 09:52:30;;;;;;;3.83;2.57;;;11.80;46.80;;;;;;5088226;27;45263;-75
2023/01/19 09:54:57;;;;;;;5.23;2.53;;;11.80;46.80;;;;;;5088291;27;45351;-75
2023/01/19 09:57:26;;;;;;;4.70;2.50;;;11.80;46.90;;;;;;5088135;27;45443;-75
2023/01/19 09:59:58;;;;;;;6.20;2.60;;;11.80;47.00;;;;;;5088258;27;45208;-74
2023/01/19 10:02:35;;;;;;;3.70;2.47;;;11.80;46.80;;;;;;5087330;27;45413;-75
2023/01/19 10:05:05;;;;;;;4.90;2.27;;;11.80;47.00;;;;;;5087496;27;45227;-75
2023/01/19 10:07:36;;;;;;;4.03;2.13;;;11.80;47.20;;;;;;5087341;27;45367;-75
2023/01/19 10:10:12;;;;;;;3.83;2.50;;;11.80;47.40;;;;;;5088135;27;45315;-75
2023/01/19 10:12:55;;;;;;;5.57;2.57;;;11.70;47.50;;;;;;5083332;27;45450;-75
2023/01/19 10:15:28;;;;;;;9.63;3.00;;;11.70;47.50;;;;;;5094608;27;45308;-76
2023/01/19 10:18:03;;;;;;;4.83;2.63;;;11.70;47.80;;;;;;5067364;28;45202;-75
2023/01/19 10:20:33;;;;;;;3.53;2.37;;;11.60;48.00;;;;;;5067911;28;45134;-75
2023/01/19 10:23:00;;;;;;;3.83;2.70;;;11.60;48.10;;;;;;5067005;28;45414;-75
2023/01/19 10:25:26;;;;;;;6.03;2.60;;;11.60;48.30;;;;;;5079832;27;45321;-75
2023/01/19 10:27:53;;;;;;;9.77;2.83;;;11.60;48.50;;;;;;5087958;27;45381;-75
2023/01/19 10:30:22;;;;;;;8.00;2.97;;;11.60;48.60;;;;;;5087948;27;45392;-75
2023/01/19 10:32:52;;;;;;;6.47;2.77;;;11.60;48.80;;;;;;5087550;27;45260;-74
2023/01/19 10:35:23;;;;;;;4.80;2.37;;;11.70;49.00;;;;;;5087508;27;45238;-75
2023/01/19 10:37:51;;;;;;;8.23;2.63;;;11.70;48.90;;;;;;5083515;27;45196;-73
2023/01/19 10:40:26;;;;;;;6.37;2.97;;;11.70;49.30;;;;;;5087117;27;45323;-75
2023/01/19 10:42:53;;;;;;;6.07;2.77;;;11.70;49.70;;;;;;5087691;27;45531;-73
2023/01/19 10:45:21;;;;;;;9.00;5.33;;;11.80;51.10;;;;;;5083140;27;45425;-75
2023/01/19 10:47:48;;;;;;;7.43;4.00;;;11.90;51.50;;;;;;5089985;27;45308;-72
2023/01/19 10:50:23;;;;;;;8.40;3.70;;;12.10;51.70;;;;;;5092346;27;45513;-74
2023/01/19 10:52:56;;;;;;;8.30;3.73;;;12.20;51.80;;;;;;5098722;27;45731;-71
2023/01/19 10:55:27;;;;;;;8.50;3.40;;;12.30;51.00;;;;;;5095423;27;45412;-73
2023/01/19 10:57:54;;;;;;;9.67;3.47;;;12.30;50.60;;;;;;5086816;27;45363;-74
2023/01/19 11:00:36;;;;;;;4.00;2.90;;;12.40;50.90;;;;;;5090312;27;45184;-75
2023/01/19 11:03:03;;;;;;;4.63;2.83;;;12.50;50.00;;;;;;5087110;27;45363;-79
2023/01/19 11:05:31;;;;;;;5.93;2.70;;;12.60;49.90;;;;;;5087624;27;45352;-86
2023/01/19 11:07:59;;;;;;;12.37;3.10;;;12.60;49.90;;;;;;5087472;27;45358;-79
2023/01/19 11:10:29;;;;;;;4.53;2.40;;;12.60;49.70;;;;;;5087053;27;45498;-81
2023/01/19 11:13:01;;;;;;;8.87;3.27;;;12.70;49.60;;;;;;5080916;27;46494;-78
2023/01/19 11:15:33;;;;;;;3.63;2.60;;;12.70;49.50;;;;;;5086609;27;45370;-78
2023/01/19 11:18:01;;;;;;;4.17;2.50;;;12.70;49.50;;;;;;5084152;27;45451;-77
2023/01/19 11:20:29;;;;;;;10.23;2.67;;;12.80;49.70;;;;;;5082557;28;45478;-71
2023/01/19 11:23:21;;;;;;;3.53;2.80;;;12.80;49.30;;;;;;5086306;27;45529;-75
2023/01/19 11:25:50;;;;;;;5.20;2.50;;;12.80;49.10;;;;;;5086515;28;45302;-75
2023/01/19 11:28:18;;;;;;;3.25;2.60;;;12.80;49.40;;;;;;5085513;27;45265;-71
2023/01/19 11:30:54;;;;;;;5.33;2.40;;;12.80;48.80;;;;;;5086358;27;45266;-71
2023/01/19 11:33:25;;;;;;;3.63;2.23;;;12.80;48.70;;;;;;5085779;27;46437;-72
2023/01/19 11:36:01;;;;;;;3.05;2.25;;;12.80;48.40;;;;;;5086260;27;44750;-70
2023/01/19 11:38:29;;;;;;;2.93;2.20;;;12.90;48.30;;;;;;5085386;27;45269;-71
2023/01/19 11:40:57;;;;;;;2.97;2.35;;;13.00;48.10;;;;;;5085809;27;45291;-71
2023/01/19 11:43:25;;;;;;;4.60;2.60;;;13.10;47.90;;;;;;5085609;27;45757;-70
2023/01/19 11:45:52;;;;;;;3.67;2.33;;;13.20;47.70;;;;;;5066591;27;45230;-71
2023/01/19 11:48:27;;;;;;;2.77;2.13;;;13.30;47.60;;;;;;5082242;28;45355;-72
2023/01/19 11:50:53;;;;;;;3.90;2.37;;;13.40;47.50;;;;;;5100090;27;45269;-75
2023/01/19 11:53:23;;;;;;;3.70;2.57;;;13.50;47.40;;;;;;5086076;27;46587;-75
2023/01/19 11:55:54;;;;;;;4.57;2.45;;;13.50;47.30;;;;;;5086481;27;45411;-76
2023/01/19 11:58:21;;;;;;;4.30;2.50;;;13.50;47.20;;;;;;5086758;27;45322;-77
2023/01/19 12:00:50;;;;;;;2.47;2.20;;;13.60;47.10;;;;;;5084574;27;45293;-76
2023/01/19 12:03:19;;;;;;;4.90;2.35;;;13.70;46.90;;;;;;5085170;27;45689;-75
2023/01/19 12:05:47;;;;;;;2.33;2.13;;;13.80;46.80;;;;;;5085887;27;45587;-76
2023/01/19 12:08:15;;;;;;;2.73;2.13;;;13.70;46.70;;;;;;5083052;27;45521;-74
2023/01/19 12:10:43;;;;;;;3.77;2.20;;;13.70;46.80;;;;;;5089686;27;45477;-74
2023/01/19 12:13:18;;;;;;;3.28;2.00;;;13.70;47.40;;;;;;5089233;27;48357;-75
2023/01/19 12:15:44;;;;;;;4.60;2.30;;;13.60;47.00;;;;;;5089483;27;45191;-76
2023/01/19 12:18:15;;;;;;;3.20;2.30;;;13.40;47.20;;;;;;5089280;27;45454;-75
2023/01/19 12:20:43;;;;;;;3.75;2.17;;;13.40;47.50;;;;;;5088978;27;45194;-75
2023/01/19 12:23:17;;;;;;;2.50;1.85;;;13.30;47.70;;;;;;5088910;27;46684;-75
2023/01/19 12:25:51;;;;;;;2.40;2.20;;;13.20;47.70;;;;;;5089535;27;45319;-75
2023/01/19 12:28:19;;;;;;;2.47;1.92;;;13.20;47.90;;;;;;5089707;27;45232;-74
2023/01/19 12:30:46;;;;;;;4.47;2.30;;;13.10;48.10;;;;;;5089195;27;45251;-76
2023/01/19 12:33:34;;;;;;;2.78;2.47;;;13.00;48.20;;;;;;5089441;27;45449;-75
2023/01/19 12:36:02;;;;;;;3.97;2.28;;;13.00;48.20;;;;;;5089096;27;45240;-75
2023/01/19 12:38:46;;;;;;;2.28;2.08;;;13.00;48.30;;;;;;5089505;27;45171;-75
2023/01/19 12:41:27;;;;;;;3.10;2.00;;;13.00;48.40;;;;;;5088735;27;45341;-75
2023/01/19 12:44:21;;;;;;;2.73;1.83;;;13.00;48.40;;;;;;5089186;27;45317;-76
2023/01/19 12:46:49;;;;;;;2.30;2.08;;;13.00;48.50;;;;;;5089348;27;45363;-75
2023/01/19 12:49:25;;;;;;;3.10;2.33;;;13.00;48.40;;;;;;5077950;27;45405;-75
2023/01/19 12:51:53;;;;;;;2.37;2.10;;;12.90;48.50;;;;;;5089066;27;45652;-75
2023/01/19 12:54:23;;;;;;;1.83;1.67;;;12.90;48.60;;;;;;5089372;27;45289;-77
2023/01/19 12:56:50;;;;;;;4.13;2.15;;;12.90;48.70;;;;;;5088785;27;45318;-76
2023/01/19 12:59:24;;;;;;;2.93;1.97;;;12.90;48.70;;;;;;5089941;27;45273;-78
2023/01/19 13:02:28;;;;;;;3.20;2.43;;;12.80;48.70;;;;;;5090403;27;45330;-77
2023/01/19 13:05:13;;;;;;;1.60;1.50;;;12.80;48.70;;;;;;5090579;27;45510;-78